Time;durP1;ratioP1;P1;durP2;ratioP2;P2;SDS_P1;SDS_P2;PMS_P1;PMS_P2;Temp;Humidity;BMP_temperature;BMP_pressure;BME280_temperature;BME280_humidity;BME280_pressure;Samples;Min_cycle;Max_cycle;Signal;HPM_P1;HPM_P2
2022/03/27 00:00:13;;;;;;;;;;;;;;;21.51;20.55;98453.25;4978781;28;1722;-78
2022/03/27 00:02:40;;;;;;;;;;;;;;;22.23;19.97;98446.94;4978702;28;901;-78
2022/03/27 00:05:06;;;;;;;;;;;;;;;22.59;19.23;98446.94;4958916;29;1801;-78
2022/03/27 00:07:31;;;;;;;;;;;;;;;22.16;19.81;98444.25;4942933;29;1679;-79
2022/03/27 00:09:57;;;;;;;;;;;;;;;21.71;20.51;98450.44;4959208;29;1887;-78
2022/03/27 00:12:22;;;;;;;;;;;;;;;21.60;20.55;98438.50;4959634;29;1421;-79
2022/03/27 00:14:48;;;;;;;;;;;;;;;21.56;20.43;98432.94;4958869;29;1375;-79
2022/03/27 00:17:13;;;;;;;;;;;;;;;22.35;19.82;98434.91;4959396;29;950;-78
2022/03/27 00:19:38;;;;;;;;;;;;;;;22.60;19.42;98431.50;4958937;29;981;-78
2022/03/27 00:22:05;;;;;;;;;;;;;;;22.30;19.70;98429.78;4959028;29;1694;-78
2022/03/27 00:24:30;;;;;;;;;;;;;;;21.77;20.20;98420.38;4952095;28;1063;-79
2022/03/27 00:26:56;;;;;;;;;;;;;;;21.62;20.67;98423.94;4958878;29;1025;-79
2022/03/27 00:29:22;;;;;;;;;;;;;;;21.82;20.54;98422.69;4958917;29;1968;-78
2022/03/27 00:31:47;;;;;;;;;;;;;;;22.36;19.91;98425.16;4958720;29;1214;-79
2022/03/27 00:34:13;;;;;;;;;;;;;;;22.64;19.41;98408.75;4958085;28;1104;-78
2022/03/27 00:36:38;;;;;;;;;;;;;;;22.08;20.15;98417.28;5002081;28;1735;-79
2022/03/27 00:39:04;;;;;;;;;;;;;;;21.73;20.54;98408.31;5016908;28;1046;-79
2022/03/27 00:41:30;;;;;;;;;;;;;;;21.59;20.38;98405.75;5017263;28;957;-79
2022/03/27 00:43:56;;;;;;;;;;;;;;;22.12;19.92;98409.53;5017015;28;1059;-77
2022/03/27 00:46:21;;;;;;;;;;;;;;;22.41;19.51;98400.38;5017395;28;947;-78
2022/03/27 00:48:46;;;;;;;;;;;;;;;22.49;19.57;98407.47;5016364;28;866;-78
2022/03/27 00:51:12;;;;;;;;;;;;;;;21.85;20.04;98398.34;5016815;28;1922;-78
2022/03/27 00:53:37;;;;;;;;;;;;;;;21.56;20.61;98398.16;5016746;28;1038;-78
2022/03/27 00:56:03;;;;;;;;;;;;;;;21.53;20.63;98399.81;5017482;28;1120;-78
2022/03/27 00:58:28;;;;;;;;;;;;;;;22.14;19.87;98392.88;5016395;28;1084;-79
2022/03/27 01:00:56;;;;;;;;;;;;;;;22.49;19.53;98393.31;5016940;28;1869;-79
2022/03/27 01:03:23;;;;;;;;;;;;;;;22.25;19.57;98387.78;5006282;28;993;-78
2022/03/27 01:05:49;;;;;;;;;;;;;;;21.76;20.20;98384.78;5019478;28;931;-78
2022/03/27 01:08:15;;;;;;;;;;;;;;;21.51;20.36;98390.16;5018650;28;1575;-78
2022/03/27 01:10:40;;;;;;;;;;;;;;;21.63;20.40;98392.34;5018972;28;1910;-79
2022/03/27 01:13:14;;;;;;;;;;;;;;;22.29;19.65;98388.50;5018892;28;952;-78
2022/03/27 01:15:40;;;;;;;;;;;;;;;22.50;19.18;98392.06;5019089;28;909;-78
2022/03/27 01:18:06;;;;;;;;;;;;;;;22.48;19.26;98383.97;5018940;28;1040;-78
2022/03/27 01:20:34;;;;;;;;;;;;;;;21.88;20.11;98382.53;5019012;28;1099;-78
2022/03/27 01:23:00;;;;;;;;;;;;;;;21.53;20.29;98382.03;4977090;28;1666;-79
2022/03/27 01:25:26;;;;;;;;;;;;;;;21.64;20.34;98382.59;4977450;28;1148;-79
2022/03/27 01:27:51;;;;;;;;;;;;;;;22.21;19.70;98370.03;4977396;28;1730;-79
2022/03/27 01:30:17;;;;;;;;;;;;;;;22.43;19.53;98381.66;4957739;29;1911;-78
2022/03/27 01:32:42;;;;;;;;;;;;;;;22.48;19.21;98374.66;4957644;29;954;-79
2022/03/27 01:35:10;;;;;;;;;;;;;;;21.79;19.84;98377.44;4957620;29;991;-79
2022/03/27 01:37:36;;;;;;;;;;;;;;;21.62;20.34;98376.59;4957343;29;900;-78
2022/03/27 01:40:01;;;;;;;;;;;;;;;21.96;19.84;98376.25;4957712;29;1023;-78
2022/03/27 01:42:27;;;;;;;;;;;;;;;22.39;19.29;98385.84;4956781;29;1868;-78
2022/03/27 01:44:52;;;;;;;;;;;;;;;22.64;19.04;98383.22;4957088;28;1183;-79
2022/03/27 01:47:17;;;;;;;;;;;;;;;22.02;19.72;98379.34;4956851;29;1041;-78
2022/03/27 01:49:43;;;;;;;;;;;;;;;21.78;20.02;98376.63;4957467;29;1910;-79
2022/03/27 01:52:08;;;;;;;;;;;;;;;21.67;20.26;98387.41;4957969;29;975;-79
2022/03/27 01:54:34;;;;;;;;;;;;;;;22.16;19.78;98373.41;4957258;29;1005;-78
2022/03/27 01:56:59;;;;;;;;;;;;;;;22.50;19.04;98370.16;4956637;28;1777;-78
2022/03/27 01:59:25;;;;;;;;;;;;;;;22.70;18.93;98372.94;4957244;28;1734;-78
2022/03/27 02:01:50;;;;;;;;;;;;;;;22.85;18.76;98374.16;4957351;29;947;-78
2022/03/27 02:04:16;;;;;;;;;;;;;;;22.05;19.81;98369.97;4957039;29;1010;-78
2022/03/27 02:06:43;;;;;;;;;;;;;;;21.64;20.03;98365.59;4958649;28;953;-78
2022/03/27 02:09:10;;;;;;;;;;;;;;;21.61;20.39;98371.38;4976405;28;1910;-78
2022/03/27 02:11:36;;;;;;;;;;;;;;;21.97;19.65;98377.84;4976646;28;968;-78
2022/03/27 02:14:01;;;;;;;;;;;;;;;22.51;19.38;98379.47;4976068;28;1768;-79
2022/03/27 02:16:26;;;;;;;;;;;;;;;22.69;19.12;98371.34;4976260;28;994;-79
2022/03/27 02:18:52;;;;;;;;;;;;;;;21.88;20.01;98374.03;4976296;28;1722;-79
2022/03/27 02:21:17;;;;;;;;;;;;;;;21.71;20.28;98375.97;4960307;28;994;-79
2022/03/27 02:23:43;;;;;;;;;;;;;;;21.57;20.18;98377.09;4975885;28;1061;-78
2022/03/27 02:26:08;;;;;;;;;;;;;;;22.34;19.51;98370.97;4976723;28;960;-78
2022/03/27 02:28:34;;;;;;;;;;;;;;;22.63;19.15;98376.72;4975902;28;911;-79
2022/03/27 02:30:59;;;;;;;;;;;;;;;22.13;19.41;98365.78;4976085;28;1902;-77
2022/03/27 02:33:25;;;;;;;;;;;;;;;21.56;20.34;98373.47;4975723;28;1107;-80
2022/03/27 02:35:50;;;;;;;;;;;;;;;21.50;20.24;98368.72;4976570;28;1102;-79
2022/03/27 02:38:16;;;;;;;;;;;;;;;22.03;19.65;98372.47;4979251;28;943;-79
2022/03/27 02:40:41;;;;;;;;;;;;;;;22.41;19.38;98372.03;5017525;28;951;-78
2022/03/27 02:43:07;;;;;;;;;;;;;;;22.51;18.94;98382.31;5017226;28;1008;-79
2022/03/27 02:45:32;;;;;;;;;;;;;;;21.85;19.72;98376.47;5017220;28;1698;-78
2022/03/27 02:47:58;;;;;;;;;;;;;;;21.57;20.40;98385.59;5016975;28;1668;-79
2022/03/27 02:50:24;;;;;;;;;;;;;;;21.74;20.15;98380.78;5017439;28;1903;-78
2022/03/27 02:52:50;;;;;;;;;;;;;;;22.30;19.47;98381.56;4975774;28;1166;-78
2022/03/27 02:55:15;;;;;;;;;;;;;;;22.62;19.05;98388.50;4975816;28;927;-79
2022/03/27 02:57:41;;;;;;;;;;;;;;;22.57;18.97;98386.22;4975801;28;1059;-79
2022/03/27 03:00:07;;;;;;;;;;;;;;;21.89;19.79;98392.59;4975720;28;1025;-79
2022/03/27 03:02:32;;;;;;;;;;;;;;;21.56;20.39;98392.50;4975406;28;1706;-78
2022/03/27 03:04:58;;;;;;;;;;;;;;;21.59;20.21;98385.94;4975459;28;914;-78
2022/03/27 03:07:23;;;;;;;;;;;;;;;22.31;19.48;98386.00;4943575;28;1121;-78
2022/03/27 03:09:49;;;;;;;;;;;;;;;22.63;18.84;98384.44;4975336;28;1910;-78
2022/03/27 03:12:15;;;;;;;;;;;;;;;22.75;18.68;98378.06;4975577;28;1019;-78
2022/03/27 03:14:40;;;;;;;;;;;;;;;21.87;19.36;98373.22;4958863;28;1105;-78
2022/03/27 03:17:06;;;;;;;;;;;;;;;21.54;20.17;98383.63;4975347;28;1950;-78
2022/03/27 03:19:32;;;;;;;;;;;;;;;21.58;20.00;98395.66;4959377;28;1473;-78
2022/03/27 03:21:58;;;;;;;;;;;;;;;22.28;18.89;98386.09;4975787;28;993;-79
2022/03/27 03:24:27;;;;;;;;;;;;;;;22.58;18.53;98385.75;4975099;28;995;-79
2022/03/27 03:26:53;;;;;;;;;;;;;;;22.74;18.52;98396.34;4975394;28;928;-78
2022/03/27 03:29:19;;;;;;;;;;;;;;;21.95;19.40;98397.31;4974860;28;1906;-79
2022/03/27 03:31:44;;;;;;;;;;;;;;;21.50;19.89;98395.03;4974880;28;1741;-79
2022/03/27 03:34:10;;;;;;;;;;;;;;;21.46;19.93;98399.16;4974920;28;1291;-79
2022/03/27 03:36:35;;;;;;;;;;;;;;;21.95;19.51;98402.97;4959544;28;925;-79
2022/03/27 03:39:01;;;;;;;;;;;;;;;22.35;18.97;98397.28;4975194;28;1045;-79
2022/03/27 03:41:26;;;;;;;;;;;;;;;22.51;18.57;98399.31;4975736;28;1150;-79
2022/03/27 03:43:52;;;;;;;;;;;;;;;22.56;18.62;98401.63;5006447;28;986;-78
2022/03/27 03:46:17;;;;;;;;;;;;;;;21.73;19.46;98408.31;5016729;28;1685;-77
2022/03/27 03:48:44;;;;;;;;;;;;;;;21.52;19.66;98420.06;5015694;28;980;-78
2022/03/27 03:51:09;;;;;;;;;;;;;;;21.98;19.15;98407.00;5016129;28;1914;-78
2022/03/27 03:53:35;;;;;;;;;;;;;;;22.47;18.68;98404.28;5016424;28;908;-79
2022/03/27 03:56:00;;;;;;;;;;;;;;;22.67;18.44;98404.22;5017040;28;982;-78
2022/03/27 03:58:25;;;;;;;;;;;;;;;21.97;19.26;98411.06;5016392;28;918;-79
2022/03/27 04:00:51;;;;;;;;;;;;;;;21.67;19.50;98409.25;5016376;28;2029;-78
2022/03/27 04:03:16;;;;;;;;;;;;;;;21.62;19.47;98416.22;5016118;28;1737;-79
2022/03/27 04:05:42;;;;;;;;;;;;;;;22.25;18.73;98421.78;5016443;28;935;-78
2022/03/27 04:08:07;;;;;;;;;;;;;;;22.60;18.22;98419.38;4974743;28;1761;-79
2022/03/27 04:10:33;;;;;;;;;;;;;;;22.74;18.09;98424.69;4978376;28;1907;-78
2022/03/27 04:12:58;;;;;;;;;;;;;;;22.08;18.89;98420.13;4978720;28;980;-78
2022/03/27 04:15:24;;;;;;;;;;;;;;;21.64;19.51;98419.41;4978563;28;950;-78
2022/03/27 04:17:51;;;;;;;;;;;;;;;21.45;19.24;98425.84;4978540;28;1074;-79
2022/03/27 04:20:17;;;;;;;;;;;;;;;22.17;18.59;98411.84;4959106;29;1003;-78
2022/03/27 04:22:42;;;;;;;;;;;;;;;22.49;18.15;98419.63;4959230;29;929;-79
2022/03/27 04:25:08;;;;;;;;;;;;;;;22.56;18.37;98424.31;4959297;29;1157;-79
2022/03/27 04:27:34;;;;;;;;;;;;;;;22.20;18.48;98430.81;4920902;29;953;-78
2022/03/27 04:30:00;;;;;;;;;;;;;;;21.66;19.18;98430.28;4936214;29;2001;-79
2022/03/27 04:32:26;;;;;;;;;;;;;;;21.71;19.00;98433.44;4921402;29;1026;-79
2022/03/27 04:34:51;;;;;;;;;;;;;;;21.90;18.93;98440.31;4920617;29;944;-78
2022/03/27 04:37:17;;;;;;;;;;;;;;;22.40;18.54;98439.28;4921181;29;1044;-79
2022/03/27 04:39:43;;;;;;;;;;;;;;;22.62;18.25;98439.56;4920479;29;983;-78
2022/03/27 04:42:09;;;;;;;;;;;;;;;22.06;18.59;98436.75;4921032;29;1470;-79
2022/03/27 04:44:34;;;;;;;;;;;;;;;21.79;19.08;98440.56;4920586;29;984;-78
2022/03/27 04:47:00;;;;;;;;;;;;;;;21.72;19.16;98452.03;4934923;29;947;-79
2022/03/27 04:49:25;;;;;;;;;;;;;;;22.27;18.50;98441.19;4939222;29;1906;-78
2022/03/27 04:51:51;;;;;;;;;;;;;;;22.70;18.14;98446.69;4953615;29;1012;-79
2022/03/27 04:54:16;;;;;;;;;;;;;;;22.73;17.99;98442.16;4958535;29;1063;-79
2022/03/27 04:56:41;;;;;;;;;;;;;;;22.20;18.32;98444.97;4958740;29;980;-77
2022/03/27 04:59:07;;;;;;;;;;;;;;;21.77;18.83;98437.38;5002392;28;937;-79
2022/03/27 05:01:33;;;;;;;;;;;;;;;21.69;19.25;98458.56;5019776;28;856;-78
2022/03/27 05:03:58;;;;;;;;;;;;;;;22.28;18.45;98454.94;4977436;28;1021;-77
2022/03/27 05:06:24;;;;;;;;;;;;;;;22.57;18.20;98457.09;4977588;28;957;-78
2022/03/27 05:08:51;;;;;;;;;;;;;;;22.68;18.07;98460.47;4961224;28;1222;-78
2022/03/27 05:11:17;;;;;;;;;;;;;;;21.87;18.93;98460.25;4958076;28;1899;-79
2022/03/27 05:13:42;;;;;;;;;;;;;;;21.66;19.05;98476.44;4957937;28;1002;-79
2022/03/27 05:16:08;;;;;;;;;;;;;;;21.87;19.01;98463.09;4958563;28;1023;-78
2022/03/27 05:18:33;;;;;;;;;;;;;;;22.42;18.39;98470.00;4957995;28;936;-78
2022/03/27 05:20:59;;;;;;;;;;;;;;;22.67;18.16;98470.25;4958314;28;1007;-78
2022/03/27 05:23:24;;;;;;;;;;;;;;;22.33;18.32;98479.94;4957887;28;1073;-79
2022/03/27 05:25:52;;;;;;;;;;;;;;;21.76;19.07;98492.41;4958172;28;1056;-79
2022/03/27 05:28:19;;;;;;;;;;;;;;;21.62;19.26;98481.34;4957828;28;1207;-78
2022/03/27 05:30:44;;;;;;;;;;;;;;;22.14;18.79;98486.41;4957933;28;1974;-79
2022/03/27 05:33:09;;;;;;;;;;;;;;;22.48;18.35;98479.59;4958024;28;1029;-79
2022/03/27 05:35:35;;;;;;;;;;;;;;;22.55;18.42;98490.78;4957582;28;964;-79
2022/03/27 05:38:00;;;;;;;;;;;;;;;21.82;18.92;98496.34;4957454;29;1075;-79
2022/03/27 05:40:26;;;;;;;;;;;;;;;21.61;19.45;98495.97;4959625;28;947;-78
2022/03/27 05:42:52;;;;;;;;;;;;;;;21.52;19.62;98493.69;4973682;28;981;-77
2022/03/27 05:45:17;;;;;;;;;;;;;;;22.19;18.73;98488.75;5018152;28;962;-77
2022/03/27 05:47:43;;;;;;;;;;;;;;;22.49;18.41;98489.72;5018580;28;942;-79
2022/03/27 05:50:15;;;;;;;;;;;;;;;22.53;18.38;98491.22;5018187;28;1903;-78
2022/03/27 05:52:43;;;;;;;;;;;;;;;21.84;18.79;98488.19;5001453;28;890;-79
2022/03/27 05:55:09;;;;;;;;;;;;;;;21.50;19.62;98484.81;5018134;28;939;-78
2022/03/27 05:57:34;;;;;;;;;;;;;;;21.66;19.60;98492.59;5018059;28;907;-78
2022/03/27 06:00:00;;;;;;;;;;;;;;;22.24;18.72;98482.56;5017655;28;898;-78
2022/03/27 06:02:25;;;;;;;;;;;;;;;22.53;18.47;98484.75;5018419;28;1183;-79
2022/03/27 06:04:51;;;;;;;;;;;;;;;22.18;18.72;98489.97;5017716;28;947;-79
2022/03/27 06:07:16;;;;;;;;;;;;;;;21.85;19.02;98506.78;5018400;28;993;-78
2022/03/27 06:09:42;;;;;;;;;;;;;;;21.58;19.53;98503.28;5017909;28;1962;-78
2022/03/27 06:12:07;;;;;;;;;;;;;;;21.77;19.51;98499.69;5018278;28;1018;-79
2022/03/27 06:14:33;;;;;;;;;;;;;;;22.51;18.40;98498.56;5017668;28;914;-78
2022/03/27 06:16:58;;;;;;;;;;;;;;;22.64;18.31;98499.50;5017654;28;924;-78
2022/03/27 06:19:24;;;;;;;;;;;;;;;22.09;18.95;98501.06;5017509;28;1028;-78
2022/03/27 06:21:49;;;;;;;;;;;;;;;21.68;19.39;98507.94;4982951;28;1121;-79
2022/03/27 06:24:15;;;;;;;;;;;;;;;21.59;19.72;98500.00;5017588;28;880;-78
2022/03/27 06:26:40;;;;;;;;;;;;;;;22.06;19.11;98493.44;5018025;28;970;-78
2022/03/27 06:29:09;;;;;;;;;;;;;;;22.49;18.41;98498.22;5017396;28;958;-79
2022/03/27 06:31:38;;;;;;;;;;;;;;;22.41;18.65;98513.78;5017102;28;1906;-78
2022/03/27 06:34:03;;;;;;;;;;;;;;;21.87;19.26;98516.91;5016923;28;922;-78
2022/03/27 06:36:29;;;;;;;;;;;;;;;21.61;19.61;98525.06;5017959;28;898;-79
2022/03/27 06:38:54;;;;;;;;;;;;;;;21.68;19.50;98518.47;5017260;28;1151;-79
2022/03/27 06:41:20;;;;;;;;;;;;;;;22.40;18.96;98523.53;5017742;28;872;-78
2022/03/27 06:43:45;;;;;;;;;;;;;;;22.61;18.71;98523.06;5017054;28;931;-78
2022/03/27 06:46:15;;;;;;;;;;;;;;;22.07;19.22;98526.19;5017501;28;1062;-79
2022/03/27 06:48:40;;;;;;;;;;;;;;;21.75;19.29;98530.44;5016686;28;874;-78
2022/03/27 06:51:06;;;;;;;;;;;;;;;21.71;19.69;98535.41;5017889;28;1914;-79
2022/03/27 06:53:31;;;;;;;;;;;;;;;22.32;19.05;98529.34;4975178;28;884;-76
2022/03/27 06:55:57;;;;;;;;;;;;;;;22.62;18.59;98527.50;4976667;28;1032;-77
2022/03/27 06:58:22;;;;;;;;;;;;;;;22.08;19.13;98530.66;4975330;28;1288;-78
2022/03/27 07:03:32;;;;;;;;;;;;;;;21.65;19.85;98531.44;4975277;28;966;-79
2022/03/27 07:05:57;;;;;;;;;;;;;;;22.23;19.16;98534.81;4975869;28;881;-79
2022/03/27 07:08:23;;;;;;;;;;;;;;;22.68;18.49;98525.72;4975616;28;1108;-78
2022/03/27 07:10:49;;;;;;;;;;;;;;;22.58;18.70;98523.94;4975946;28;2051;-79
2022/03/27 07:13:16;;;;;;;;;;;;;;;21.75;19.59;98521.16;4936838;29;977;-79
2022/03/27 07:15:41;;;;;;;;;;;;;;;21.76;19.71;98531.25;4937016;29;1140;-79
2022/03/27 07:18:07;;;;;;;;;;;;;;;21.94;19.63;98526.06;4936631;29;1003;-78
2022/03/27 07:20:33;;;;;;;;;;;;;;;22.34;19.22;98529.72;4937459;29;955;-79
2022/03/27 07:23:02;;;;;;;;;;;;;;;22.68;18.59;98537.06;4936948;29;1000;-78
2022/03/27 07:25:28;;;;;;;;;;;;;;;22.04;19.46;98536.38;4953804;29;958;-77
2022/03/27 07:27:54;;;;;;;;;;;;;;;21.71;19.64;98532.56;4955968;29;1104;-78
2022/03/27 07:30:19;;;;;;;;;;;;;;;21.44;20.24;98532.63;4956229;29;1983;-79
2022/03/27 07:32:45;;;;;;;;;;;;;;;22.36;19.21;98535.75;4917780;29;1205;-79
2022/03/27 07:35:11;;;;;;;;;;;;;;;22.49;18.99;98527.38;4917668;29;983;-78
2022/03/27 07:37:37;;;;;;;;;;;;;;;22.41;19.20;98530.81;4918148;29;1011;-79
2022/03/27 07:40:03;;;;;;;;;;;;;;;21.79;19.62;98547.38;4917793;29;1108;-78
2022/03/27 07:42:31;;;;;;;;;;;;;;;21.56;19.94;98545.41;4902260;29;969;-79
2022/03/27 07:44:57;;;;;;;;;;;;;;;21.64;19.90;98538.34;4965947;28;1175;-79
2022/03/27 07:47:22;;;;;;;;;;;;;;;22.28;19.43;98539.97;4979587;28;933;-79
2022/03/27 07:49:48;;;;;;;;;;;;;;;22.61;18.98;98535.22;4978793;28;1919;-78
2022/03/27 07:52:13;;;;;;;;;;;;;;;22.62;18.93;98530.31;4979056;28;954;-78
2022/03/27 07:54:39;;;;;;;;;;;;;;;21.94;19.65;98530.94;4979231;28;995;-78
2022/03/27 07:57:05;;;;;;;;;;;;;;;21.56;20.17;98529.19;4947127;28;1036;-78
2022/03/27 07:59:30;;;;;;;;;;;;;;;21.47;20.32;98528.16;4979051;28;965;-78
2022/03/27 08:01:55;;;;;;;;;;;;;;;22.18;19.56;98529.66;4941101;29;1016;-79
2022/03/27 08:04:21;;;;;;;;;;;;;;;22.45;19.05;98523.03;4940404;29;956;-79
2022/03/27 08:06:47;;;;;;;;;;;;;;;22.65;18.76;98523.00;4940815;29;980;-79
2022/03/27 08:09:12;;;;;;;;;;;;;;;21.98;19.65;98531.66;4941998;29;944;-78
2022/03/27 08:11:41;;;;;;;;;;;;;;;21.58;20.27;98525.94;4959874;29;1989;-79
2022/03/27 08:14:08;;;;;;;;;;;;;;;21.69;20.10;98526.53;4943600;29;1021;-79
2022/03/27 08:16:34;;;;;;;;;;;;;;;22.15;19.69;98529.72;4959446;29;894;-77
2022/03/27 08:18:59;;;;;;;;;;;;;;;22.48;19.32;98519.28;4958864;29;964;-79
2022/03/27 08:21:24;;;;;;;;;;;;;;;22.10;19.75;98531.81;4959375;29;989;-79
2022/03/27 08:23:50;;;;;;;;;;;;;;;21.76;20.14;98540.56;4959018;29;980;-78
2022/03/27 08:29:03;;;;;;;;;;;;;;;22.01;19.96;98542.91;4958774;29;987;-78
2022/03/27 08:31:30;;;;;;;;;;;;;;;22.44;19.29;98535.59;4959392;29;1910;-78
2022/03/27 08:33:55;;;;;;;;;;;;;;;22.64;19.08;98536.38;4996729;28;919;-77
2022/03/27 08:36:21;;;;;;;;;;;;;;;22.02;19.79;98535.19;5000065;28;953;-79
2022/03/27 08:38:46;;;;;;;;;;;;;;;21.67;20.06;98529.00;4977706;28;924;-78
2022/03/27 08:41:12;;;;;;;;;;;;;;;21.53;20.14;98526.44;4978566;28;1039;-77
2022/03/27 08:43:39;;;;;;;;;;;;;;;21.96;19.84;98534.09;4994103;28;1000;-78
2022/03/27 08:46:05;;;;;;;;;;;;;;;22.48;19.13;98530.63;4955747;29;961;-78
2022/03/27 08:48:33;;;;;;;;;;;;;;;22.53;19.03;98521.63;4938882;29;993;-78
2022/03/27 08:51:08;;;;;;;;;;;;;;;22.66;19.12;98519.72;4954763;29;1918;-78
2022/03/27 08:53:40;;;;;;;;;;;;;;;22.09;19.70;98524.53;4955147;29;1064;-78
2022/03/27 08:56:06;;;;;;;;;;;;;;;21.81;20.15;98517.41;4955276;28;913;-78
2022/03/27 08:58:38;;;;;;;;;;;;;;;21.64;20.31;98518.53;4938681;29;963;-78
2022/03/27 09:01:04;;;;;;;;;;;;;;;21.59;20.33;98516.19;4920598;29;949;-78
2022/03/27 09:03:30;;;;;;;;;;;;;;;22.27;19.54;98515.69;4920411;29;938;-78
2022/03/27 09:05:56;;;;;;;;;;;;;;;22.64;19.13;98516.53;4920288;29;969;-79
2022/03/27 09:08:22;;;;;;;;;;;;;;;22.15;19.62;98519.19;4920020;29;928;-79
2022/03/27 09:10:47;;;;;;;;;;;;;;;21.75;20.03;98521.94;4901112;29;1914;-79
2022/03/27 09:13:13;;;;;;;;;;;;;;;21.61;20.04;98530.75;4900919;29;1014;-78
2022/03/27 09:15:39;;;;;;;;;;;;;;;21.80;20.08;98529.94;4901573;29;1023;-78
2022/03/27 09:18:08;;;;;;;;;;;;;;;22.31;19.42;98521.28;4916381;29;1105;-78
2022/03/27 09:20:34;;;;;;;;;;;;;;;22.65;19.07;98518.13;4919826;29;1075;-78
2022/03/27 09:23:21;;;;;;;;;;;;;;;21.98;19.72;98534.50;4920074;29;902;-79
2022/03/27 09:25:59;;;;;;;;;;;;;;;21.74;20.09;98534.53;4886004;29;1046;-79
2022/03/27 09:28:33;;;;;;;;;;;;;;;21.49;20.18;98534.19;4881769;29;989;-77
2022/03/27 09:31:00;;;;;;;;;;;;;;;21.85;19.75;98545.66;4882798;29;1903;-79
2022/03/27 09:33:32;;;;;;;;;;;;;;;22.56;18.92;98537.75;4882025;29;1019;-78
2022/03/27 09:36:04;;;;;;;;;;;;;;;22.61;19.10;98546.56;4845145;29;1024;-79
2022/03/27 09:38:29;;;;;;;;;;;;;;;21.83;19.96;98542.47;4844774;29;1056;-78
2022/03/27 09:40:55;;;;;;;;;;;;;;;21.83;19.93;98543.25;4845755;29;1020;-79
2022/03/27 09:43:22;;;;;;;;;;;;;;;21.55;20.02;98546.59;4860219;29;939;-78
2022/03/27 09:45:58;;;;;;;;;;;;;;;22.24;19.52;98553.41;4845475;29;939;-79
2022/03/27 09:48:23;;;;;;;;;;;;;;;22.55;19.18;98547.50;4881201;29;1011;-79
2022/03/27 09:50:49;;;;;;;;;;;;;;;21.98;19.73;98549.47;4881939;29;1960;-79
2022/03/27 09:53:18;;;;;;;;;;;;;;;21.73;20.10;98549.94;4897336;29;1618;-79
2022/03/27 09:55:44;;;;;;;;;;;;;;;21.61;20.24;98564.72;4861554;29;973;-79
2022/03/27 09:58:09;;;;;;;;;;;;;;;21.59;20.15;98567.16;4845286;29;952;-78
2022/03/27 10:00:35;;;;;;;;;;;;;;;22.34;19.50;98569.41;4863686;29;989;-79
2022/03/27 10:03:07;;;;;;;;;;;;;;;22.67;19.02;98566.69;4916453;29;884;-79
2022/03/27 10:05:33;;;;;;;;;;;;;;;22.68;19.00;98568.28;4958116;29;959;-79
2022/03/27 10:07:58;;;;;;;;;;;;;;;21.91;19.71;98572.25;4956970;28;1027;-78
2022/03/27 10:10:25;;;;;;;;;;;;;;;21.67;19.91;98571.50;4957656;29;1972;-78
2022/03/27 10:12:51;;;;;;;;;;;;;;;21.59;20.34;98567.16;4957691;29;942;-78
2022/03/27 10:15:17;;;;;;;;;;;;;;;21.51;20.13;98558.00;4957258;29;1643;-78
2022/03/27 10:17:46;;;;;;;;;;;;;;;22.28;19.38;98574.00;4957921;29;954;-79
2022/03/27 10:20:13;;;;;;;;;;;;;;;22.51;19.14;98558.94;4952642;28;1391;-78
2022/03/27 10:22:59;;;;;;;;;;;;;;;22.21;19.21;98567.66;5003623;28;1461;-78
2022/03/27 10:25:26;;;;;;;;;;;;;;;21.68;20.13;98567.41;4950441;29;1357;-79
2022/03/27 10:27:51;;;;;;;;;;;;;;;21.57;20.29;98566.81;4947178;29;1406;-80
2022/03/27 10:30:17;;;;;;;;;;;;;;;21.45;20.10;98573.06;4951913;29;1895;-78
2022/03/27 10:32:43;;;;;;;;;;;;;;;22.21;19.66;98571.28;4945990;29;1362;-78
2022/03/27 10:35:27;;;;;;;;;;;;;;;22.58;18.89;98564.44;4926145;29;1597;-79
2022/03/27 10:37:58;;;;;;;;;;;;;;;21.99;19.57;98567.25;4928187;29;1463;-79
2022/03/27 10:40:42;;;;;;;;;;;;;;;21.62;20.28;98566.31;4918833;29;1163;-79
2022/03/27 10:43:31;;;;;;;;;;;;;;;21.55;20.04;98561.59;4918503;29;1046;-79
2022/03/27 10:46:12;;;;;;;;;;;;;;;21.71;20.08;98569.41;4881493;29;1069;-78
2022/03/27 10:48:38;;;;;;;;;;;;;;;22.35;19.32;98573.84;4880935;29;983;-79
2022/03/27 10:51:03;;;;;;;;;;;;;;;22.46;19.38;98572.81;4825694;29;1977;-79
2022/03/27 10:53:29;;;;;;;;;;;;;;;22.30;19.32;98571.50;4825439;29;886;-78
2022/03/27 10:55:56;;;;;;;;;;;;;;;21.74;19.88;98562.84;4826471;29;1002;-78
2022/03/27 10:58:35;;;;;;;;;;;;;;;21.47;20.35;98564.97;4807195;29;1036;-79
2022/03/27 11:01:03;;;;;;;;;;;;;;;21.43;20.46;98581.19;4807843;29;964;-78
2022/03/27 11:03:49;;;;;;;;;;;;;;;22.07;19.84;98582.88;4792247;29;1003;-79
2022/03/27 11:06:21;;;;;;;;;;;;;;;22.48;19.44;98581.69;4807543;29;967;-79
2022/03/27 11:08:47;;;;;;;;;;;;;;;22.56;19.04;98586.78;4807132;29;999;-79
2022/03/27 11:11:33;;;;;;;;;;;;;;;21.99;19.96;98589.91;4807492;29;1990;-79
2022/03/27 11:13:58;;;;;;;;;;;;;;;21.62;20.24;98583.31;4807349;29;978;-79
2022/03/27 11:16:24;;;;;;;;;;;;;;;21.50;20.14;98586.72;4792434;29;1261;-80
2022/03/27 11:18:49;;;;;;;;;;;;;;;22.22;19.43;98597.59;4806493;29;1039;-79
2022/03/27 11:21:27;;;;;;;;;;;;;;;22.54;19.10;98585.63;4813411;29;1015;-79
2022/03/27 11:23:52;;;;;;;;;;;;;;;22.21;19.54;98591.13;4892390;29;988;-79
2022/03/27 11:26:20;;;;;;;;;;;;;;;21.65;20.29;98590.91;4899545;29;951;-80
2022/03/27 11:29:04;;;;;;;;;;;;;;;21.54;20.51;98590.31;4908569;29;1008;-78
2022/03/27 11:31:31;;;;;;;;;;;;;;;21.30;20.66;98581.81;4922339;29;1907;-78
2022/03/27 11:34:08;;;;;;;;;;;;;;;22.10;19.72;98576.34;4918186;29;1036;-78
2022/03/27 11:36:34;;;;;;;;;;;;;;;22.47;19.44;98586.56;4965779;28;926;-80
2022/03/27 11:39:02;;;;;;;;;;;;;;;22.26;19.64;98593.47;4975278;28;950;-80
2022/03/27 11:41:44;;;;;;;;;;;;;;;21.70;20.30;98607.44;4975594;28;972;-79
2022/03/27 11:44:23;;;;;;;;;;;;;;;21.51;20.51;98605.34;4975773;28;980;-79
2022/03/27 11:46:52;;;;;;;;;;;;;;;21.55;20.41;98594.75;4956428;29;994;-79
2022/03/27 11:49:18;;;;;;;;;;;;;;;22.17;20.00;98607.41;4956002;29;1137;-80
2022/03/27 11:51:43;;;;;;;;;;;;;;;22.45;19.50;98593.91;4956699;29;1896;-79
2022/03/27 11:54:18;;;;;;;;;;;;;;;22.61;19.54;98599.66;4956335;29;1082;-79
2022/03/27 11:56:57;;;;;;;;;;;;;;;21.87;20.27;98599.06;4937435;29;1136;-77
2022/03/27 11:59:26;;;;;;;;;;;;;;;21.60;20.64;98591.41;4936929;29;954;-79
2022/03/27 12:01:55;;;;;;;;;;;;;;;21.51;20.67;98602.53;4899698;29;993;-80
2022/03/27 12:04:20;;;;;;;;;;;;;;;22.13;20.00;98594.56;4898631;29;1070;-80
2022/03/27 12:06:46;;;;;;;;;;;;;;;22.45;19.57;98605.25;4899285;29;1067;-80
2022/03/27 12:09:27;;;;;;;;;;;;;;;22.36;19.60;98609.47;4898979;29;984;-80
2022/03/27 12:12:06;;;;;;;;;;;;;;;21.76;20.53;98611.38;4885799;29;1972;-79
2022/03/27 12:14:32;;;;;;;;;;;;;;;21.63;20.70;98613.22;4843125;29;1053;-78
2022/03/27 12:16:58;;;;;;;;;;;;;;;21.52;20.87;98612.59;4849187;29;1048;-80
2022/03/27 12:19:23;;;;;;;;;;;;;;;22.04;20.31;98614.94;4877090;29;1636;-80
2022/03/27 12:21:49;;;;;;;;;;;;;;;22.44;19.70;98623.50;4871588;29;1538;-79
2022/03/27 12:24:16;;;;;;;;;;;;;;;22.55;19.39;98627.72;4861672;29;1522;-79
2022/03/27 12:32:15;;;;;;;;;;;;;;;21.40;21.14;98622.50;4897739;29;1528;-80
2022/03/27 12:34:44;;;;;;;;;;;;;;;22.05;20.00;98639.19;4901774;29;986;-79
2022/03/27 12:37:14;;;;;;;;;;;;;;;22.35;19.96;98636.22;4902393;29;1179;-79
2022/03/27 12:39:48;;;;;;;;;;;;;;;22.53;19.45;98635.84;4901926;29;956;-80
2022/03/27 12:42:34;;;;;;;;;;;;;;;21.77;20.50;98640.50;4902622;29;1004;-79
2022/03/27 12:45:08;;;;;;;;;;;;;;;21.43;20.90;98640.66;4912876;29;959;-80
2022/03/27 12:47:34;;;;;;;;;;;;;;;21.71;20.63;98643.03;4909271;29;1687;-80
2022/03/27 12:50:00;;;;;;;;;;;;;;;22.34;19.86;98640.28;4958393;28;1903;-79
2022/03/27 12:52:25;;;;;;;;;;;;;;;22.54;19.50;98643.16;4959474;29;1491;-80
2022/03/27 12:54:54;;;;;;;;;;;;;;;21.98;20.24;98645.00;4958536;29;1555;-78
2022/03/27 12:57:19;;;;;;;;;;;;;;;21.54;20.82;98650.56;4967323;28;1590;-79
2022/03/27 12:59:45;;;;;;;;;;;;;;;21.41;20.85;98654.44;4958913;29;933;-79
2022/03/27 13:02:26;;;;;;;;;;;;;;;21.97;20.41;98649.06;4939592;29;1602;-80
2022/03/27 13:05:00;;;;;;;;;;;;;;;22.45;19.70;98650.63;4941411;28;1525;-80
2022/03/27 13:07:44;;;;;;;;;;;;;;;22.57;19.41;98647.13;4938693;29;1538;-79
2022/03/27 13:10:12;;;;;;;;;;;;;;;22.06;20.29;98646.44;4938439;29;1864;-79